sensor_id;sensor_type;location;lat;lon;timestamp;temperature;humidity
73777;DHT22;62088;50.240;2.696;2022-11-15T00:00:49;10.30;89.10
73777;DHT22;62088;50.240;2.696;2022-11-15T00:03:35;10.30;89.00
73777;DHT22;62088;50.240;2.696;2022-11-15T00:06:20;10.20;89.00
73777;DHT22;62088;50.240;2.696;2022-11-15T00:09:06;10.30;89.00
73777;DHT22;62088;50.240;2.696;2022-11-15T00:11:52;10.20;89.00
73777;DHT22;62088;50.240;2.696;2022-11-15T00:14:37;10.20;88.90
73777;DHT22;62088;50.240;2.696;2022-11-15T00:17:22;10.20;88.90
73777;DHT22;62088;50.240;2.696;2022-11-15T00:20:08;10.20;88.90
73777;DHT22;62088;50.240;2.696;2022-11-15T00:22:54;10.20;88.90
73777;DHT22;62088;50.240;2.696;2022-11-15T00:25:40;10.20;88.90
73777;DHT22;62088;50.240;2.696;2022-11-15T00:28:26;10.20;88.80
73777;DHT22;62088;50.240;2.696;2022-11-15T00:31:13;10.20;88.80
73777;DHT22;62088;50.240;2.696;2022-11-15T00:33:59;10.10;88.80
73777;DHT22;62088;50.240;2.696;2022-11-15T00:36:45;10.20;88.80
73777;DHT22;62088;50.240;2.696;2022-11-15T00:39:30;10.10;88.70
73777;DHT22;62088;50.240;2.696;2022-11-15T00:42:16;10.10;88.60
73777;DHT22;62088;50.240;2.696;2022-11-15T00:45:02;10.10;88.60
73777;DHT22;62088;50.240;2.696;2022-11-15T00:47:47;10.00;88.60
73777;DHT22;62088;50.240;2.696;2022-11-15T00:50:33;10.00;88.60
73777;DHT22;62088;50.240;2.696;2022-11-15T00:53:19;10.00;88.60
73777;DHT22;62088;50.240;2.696;2022-11-15T00:56:04;10.00;88.60
73777;DHT22;62088;50.240;2.696;2022-11-15T00:58:50;10.00;88.50
73777;DHT22;62088;50.240;2.696;2022-11-15T01:01:35;10.00;88.50
73777;DHT22;62088;50.240;2.696;2022-11-15T01:04:21;9.90;88.50
73777;DHT22;62088;50.240;2.696;2022-11-15T01:07:07;9.90;88.40
73777;DHT22;62088;50.240;2.696;2022-11-15T01:09:52;9.90;88.30
73777;DHT22;62088;50.240;2.696;2022-11-15T01:12:38;9.90;88.30
73777;DHT22;62088;50.240;2.696;2022-11-15T01:15:23;9.90;88.30
73777;DHT22;62088;50.240;2.696;2022-11-15T01:18:09;9.90;88.30
73777;DHT22;62088;50.240;2.696;2022-11-15T01:20:55;9.80;88.20
73777;DHT22;62088;50.240;2.696;2022-11-15T01:23:41;9.80;88.20
73777;DHT22;62088;50.240;2.696;2022-11-15T01:26:26;9.80;88.20
73777;DHT22;62088;50.240;2.696;2022-11-15T01:29:12;9.80;88.20
73777;DHT22;62088;50.240;2.696;2022-11-15T01:31:58;9.70;88.20
73777;DHT22;62088;50.240;2.696;2022-11-15T01:34:43;9.70;88.20
73777;DHT22;62088;50.240;2.696;2022-11-15T01:37:29;9.70;88.10
73777;DHT22;62088;50.240;2.696;2022-11-15T01:40:15;9.70;88.20
73777;DHT22;62088;50.240;2.696;2022-11-15T01:43:19;9.60;88.10
73777;DHT22;62088;50.240;2.696;2022-11-15T01:49:18;9.60;88.10
73777;DHT22;62088;50.240;2.696;2022-11-15T01:52:10;9.50;88.00
73777;DHT22;62088;50.240;2.696;2022-11-15T01:55:21;9.50;88.00
73777;DHT22;62088;50.240;2.696;2022-11-15T01:58:08;9.50;88.00
73777;DHT22;62088;50.240;2.696;2022-11-15T02:00:53;9.50;88.00
73777;DHT22;62088;50.240;2.696;2022-11-15T02:03:46;9.40;88.00
73777;DHT22;62088;50.240;2.696;2022-11-15T02:06:34;9.40;87.90
73777;DHT22;62088;50.240;2.696;2022-11-15T02:09:20;9.40;87.90
73777;DHT22;62088;50.240;2.696;2022-11-15T02:12:07;9.30;87.90
73777;DHT22;62088;50.240;2.696;2022-11-15T02:14:55;9.30;87.90
73777;DHT22;62088;50.240;2.696;2022-11-15T02:17:56;9.30;87.90
73777;DHT22;62088;50.240;2.696;2022-11-15T02:21:02;9.20;87.80
73777;DHT22;62088;50.240;2.696;2022-11-15T02:24:35;9.20;87.80
73777;DHT22;62088;50.240;2.696;2022-11-15T02:36:44;9.10;87.80
73777;DHT22;62088;50.240;2.696;2022-11-15T02:42:39;9.00;87.80
73777;DHT22;62088;50.240;2.696;2022-11-15T02:45:56;9.00;87.80
73777;DHT22;62088;50.240;2.696;2022-11-15T02:48:45;9.00;87.80
73777;DHT22;62088;50.240;2.696;2022-11-15T02:51:33;8.90;87.80
73777;DHT22;62088;50.240;2.696;2022-11-15T02:54:23;8.90;87.80
73777;DHT22;62088;50.240;2.696;2022-11-15T02:57:16;8.90;87.80
73777;DHT22;62088;50.240;2.696;2022-11-15T03:00:12;8.90;87.80
73777;DHT22;62088;50.240;2.696;2022-11-15T03:18:20;8.90;88.10
73777;DHT22;62088;50.240;2.696;2022-11-15T03:21:08;8.90;88.20
73777;DHT22;62088;50.240;2.696;2022-11-15T03:24:01;8.90;88.20
73777;DHT22;62088;50.240;2.696;2022-11-15T03:26:49;8.90;88.20
73777;DHT22;62088;50.240;2.696;2022-11-15T03:29:41;8.90;88.20
73777;DHT22;62088;50.240;2.696;2022-11-15T03:32:34;8.90;88.20
73777;DHT22;62088;50.240;2.696;2022-11-15T03:35:24;8.90;88.20
73777;DHT22;62088;50.240;2.696;2022-11-15T03:38:26;8.90;88.20
73777;DHT22;62088;50.240;2.696;2022-11-15T03:41:37;8.90;88.20
73777;DHT22;62088;50.240;2.696;2022-11-15T03:47:27;8.90;88.20
73777;DHT22;62088;50.240;2.696;2022-11-15T03:50:18;8.90;88.20
73777;DHT22;62088;50.240;2.696;2022-11-15T03:53:04;8.80;88.20
73777;DHT22;62088;50.240;2.696;2022-11-15T03:55:50;8.80;88.20
73777;DHT22;62088;50.240;2.696;2022-11-15T03:58:35;8.80;88.20
73777;DHT22;62088;50.240;2.696;2022-11-15T04:01:21;8.80;88.20
73777;DHT22;62088;50.240;2.696;2022-11-15T04:04:06;8.70;88.20
73777;DHT22;62088;50.240;2.696;2022-11-15T04:06:52;8.80;88.10
73777;DHT22;62088;50.240;2.696;2022-11-15T04:09:37;8.70;88.10
73777;DHT22;62088;50.240;2.696;2022-11-15T04:12:44;8.70;88.10
73777;DHT22;62088;50.240;2.696;2022-11-15T04:15:31;8.70;88.10
73777;DHT22;62088;50.240;2.696;2022-11-15T04:18:16;8.70;88.10
73777;DHT22;62088;50.240;2.696;2022-11-15T04:21:02;8.70;88.00
73777;DHT22;62088;50.240;2.696;2022-11-15T04:24:05;8.60;88.00
73777;DHT22;62088;50.240;2.696;2022-11-15T04:27:00;8.60;88.10
73777;DHT22;62088;50.240;2.696;2022-11-15T04:29:46;8.60;88.10
73777;DHT22;62088;50.240;2.696;2022-11-15T04:32:31;8.50;88.10
73777;DHT22;62088;50.240;2.696;2022-11-15T04:35:17;8.50;88.10
73777;DHT22;62088;50.240;2.696;2022-11-15T04:38:05;8.50;88.10
73777;DHT22;62088;50.240;2.696;2022-11-15T04:40:51;8.50;88.10
73777;DHT22;62088;50.240;2.696;2022-11-15T04:43:36;8.50;88.10
73777;DHT22;62088;50.240;2.696;2022-11-15T04:46:23;8.50;88.10
73777;DHT22;62088;50.240;2.696;2022-11-15T04:49:09;8.50;88.20
73777;DHT22;62088;50.240;2.696;2022-11-15T04:51:54;8.50;88.10
73777;DHT22;62088;50.240;2.696;2022-11-15T04:54:40;8.50;88.10
73777;DHT22;62088;50.240;2.696;2022-11-15T04:57:27;8.50;88.10
73777;DHT22;62088;50.240;2.696;2022-11-15T05:00:14;8.50;88.20
73777;DHT22;62088;50.240;2.696;2022-11-15T05:03:00;8.50;88.20
73777;DHT22;62088;50.240;2.696;2022-11-15T05:06:05;8.40;88.10
73777;DHT22;62088;50.240;2.696;2022-11-15T05:08:51;8.50;88.20
73777;DHT22;62088;50.240;2.696;2022-11-15T05:11:36;8.40;88.20
73777;DHT22;62088;50.240;2.696;2022-11-15T05:14:21;8.50;88.20
73777;DHT22;62088;50.240;2.696;2022-11-15T05:17:07;8.40;88.20
73777;DHT22;62088;50.240;2.696;2022-11-15T05:19:53;8.40;88.20
73777;DHT22;62088;50.240;2.696;2022-11-15T05:22:39;8.40;88.20
73777;DHT22;62088;50.240;2.696;2022-11-15T05:25:25;8.40;88.30
73777;DHT22;62088;50.240;2.696;2022-11-15T05:28:10;8.40;88.30
73777;DHT22;62088;50.240;2.696;2022-11-15T05:33:49;8.40;88.30
73777;DHT22;62088;50.240;2.696;2022-11-15T05:36:38;8.40;88.20
73777;DHT22;62088;50.240;2.696;2022-11-15T05:39:25;8.50;88.20
73777;DHT22;62088;50.240;2.696;2022-11-15T05:42:13;8.40;88.20
73777;DHT22;62088;50.240;2.696;2022-11-15T05:45:00;8.40;88.20
73777;DHT22;62088;50.240;2.696;2022-11-15T05:47:47;8.40;88.20
73777;DHT22;62088;50.240;2.696;2022-11-15T05:50:34;8.40;88.20
73777;DHT22;62088;50.240;2.696;2022-11-15T05:53:22;8.40;88.20
73777;DHT22;62088;50.240;2.696;2022-11-15T05:56:09;8.40;88.20
73777;DHT22;62088;50.240;2.696;2022-11-15T05:58:56;8.40;88.20
73777;DHT22;62088;50.240;2.696;2022-11-15T06:01:45;8.40;88.20
73777;DHT22;62088;50.240;2.696;2022-11-15T06:04:31;8.40;88.20
73777;DHT22;62088;50.240;2.696;2022-11-15T06:07:16;8.40;88.10
73777;DHT22;62088;50.240;2.696;2022-11-15T06:10:02;8.40;88.10
73777;DHT22;62088;50.240;2.696;2022-11-15T06:15:43;8.40;87.90
73777;DHT22;62088;50.240;2.696;2022-11-15T06:18:32;8.40;87.90
73777;DHT22;62088;50.240;2.696;2022-11-15T06:21:18;8.40;87.80
73777;DHT22;62088;50.240;2.696;2022-11-15T06:24:05;8.40;87.80
73777;DHT22;62088;50.240;2.696;2022-11-15T06:26:51;8.40;87.70
73777;DHT22;62088;50.240;2.696;2022-11-15T06:29:37;8.30;87.60
73777;DHT22;62088;50.240;2.696;2022-11-15T06:32:22;8.30;87.60
73777;DHT22;62088;50.240;2.696;2022-11-15T06:35:08;8.30;87.60
73777;DHT22;62088;50.240;2.696;2022-11-15T06:37:54;8.30;87.50
73777;DHT22;62088;50.240;2.696;2022-11-15T06:40:39;8.30;87.50
73777;DHT22;62088;50.240;2.696;2022-11-15T06:43:25;8.30;87.50
73777;DHT22;62088;50.240;2.696;2022-11-15T06:46:11;8.30;87.50
73777;DHT22;62088;50.240;2.696;2022-11-15T06:48:56;8.30;87.50
73777;DHT22;62088;50.240;2.696;2022-11-15T06:51:41;8.30;87.50
73777;DHT22;62088;50.240;2.696;2022-11-15T06:54:27;8.30;87.40
73777;DHT22;62088;50.240;2.696;2022-11-15T06:57:13;8.30;87.50
73777;DHT22;62088;50.240;2.696;2022-11-15T06:59:59;8.30;87.40
73777;DHT22;62088;50.240;2.696;2022-11-15T07:02:44;8.20;87.30
73777;DHT22;62088;50.240;2.696;2022-11-15T07:05:30;8.20;87.30
73777;DHT22;62088;50.240;2.696;2022-11-15T07:08:16;8.20;87.30
73777;DHT22;62088;50.240;2.696;2022-11-15T07:11:04;8.20;87.20
73777;DHT22;62088;50.240;2.696;2022-11-15T07:13:49;8.20;87.20
73777;DHT22;62088;50.240;2.696;2022-11-15T07:16:36;8.20;87.20
73777;DHT22;62088;50.240;2.696;2022-11-15T07:19:21;8.10;87.20
73777;DHT22;62088;50.240;2.696;2022-11-15T07:22:07;8.20;87.10
73777;DHT22;62088;50.240;2.696;2022-11-15T07:24:52;8.10;87.10
73777;DHT22;62088;50.240;2.696;2022-11-15T07:27:38;8.10;87.10
73777;DHT22;62088;50.240;2.696;2022-11-15T07:30:25;8.10;87.10
73777;DHT22;62088;50.240;2.696;2022-11-15T07:33:10;8.10;87.10
73777;DHT22;62088;50.240;2.696;2022-11-15T07:35:59;8.10;87.20
73777;DHT22;62088;50.240;2.696;2022-11-15T07:38:46;8.10;87.30
73777;DHT22;62088;50.240;2.696;2022-11-15T07:41:32;8.10;87.30
73777;DHT22;62088;50.240;2.696;2022-11-15T07:44:17;8.10;87.30
73777;DHT22;62088;50.240;2.696;2022-11-15T07:47:03;8.20;87.30
73777;DHT22;62088;50.240;2.696;2022-11-15T07:49:48;8.20;87.30
73777;DHT22;62088;50.240;2.696;2022-11-15T07:52:34;8.20;87.30
73777;DHT22;62088;50.240;2.696;2022-11-15T07:55:19;8.10;87.30
73777;DHT22;62088;50.240;2.696;2022-11-15T07:58:10;8.20;87.30
73777;DHT22;62088;50.240;2.696;2022-11-15T08:00:56;8.20;87.30
73777;DHT22;62088;50.240;2.696;2022-11-15T08:03:42;8.20;87.30
73777;DHT22;62088;50.240;2.696;2022-11-15T08:06:28;8.20;87.30
73777;DHT22;62088;50.240;2.696;2022-11-15T08:09:13;8.20;87.30
73777;DHT22;62088;50.240;2.696;2022-11-15T08:11:58;8.20;87.40
73777;DHT22;62088;50.240;2.696;2022-11-15T08:14:44;8.20;87.40
73777;DHT22;62088;50.240;2.696;2022-11-15T08:17:29;8.30;87.50
73777;DHT22;62088;50.240;2.696;2022-11-15T08:20:18;8.30;87.60
73777;DHT22;62088;50.240;2.696;2022-11-15T08:23:05;8.30;87.50
73777;DHT22;62088;50.240;2.696;2022-11-15T08:25:51;8.40;87.60
73777;DHT22;62088;50.240;2.696;2022-11-15T08:28:36;8.40;87.50
73777;DHT22;62088;50.240;2.696;2022-11-15T08:31:22;8.40;87.50
73777;DHT22;62088;50.240;2.696;2022-11-15T08:34:08;8.40;87.40
73777;DHT22;62088;50.240;2.696;2022-11-15T08:36:53;8.50;87.40
73777;DHT22;62088;50.240;2.696;2022-11-15T08:39:39;8.50;87.40
73777;DHT22;62088;50.240;2.696;2022-11-15T08:42:24;8.50;87.30
73777;DHT22;62088;50.240;2.696;2022-11-15T08:45:10;8.50;87.20
73777;DHT22;62088;50.240;2.696;2022-11-15T08:47:56;8.60;87.20
73777;DHT22;62088;50.240;2.696;2022-11-15T08:50:41;8.60;87.20
73777;DHT22;62088;50.240;2.696;2022-11-15T08:53:29;8.60;87.20
73777;DHT22;62088;50.240;2.696;2022-11-15T08:56:15;8.60;87.20
73777;DHT22;62088;50.240;2.696;2022-11-15T08:59:00;8.70;87.20
73777;DHT22;62088;50.240;2.696;2022-11-15T09:01:46;8.70;87.30
73777;DHT22;62088;50.240;2.696;2022-11-15T09:04:32;8.70;87.30
73777;DHT22;62088;50.240;2.696;2022-11-15T09:07:18;8.80;87.30
73777;DHT22;62088;50.240;2.696;2022-11-15T09:10:04;8.80;87.30
73777;DHT22;62088;50.240;2.696;2022-11-15T09:12:49;8.90;87.30
73777;DHT22;62088;50.240;2.696;2022-11-15T09:15:35;8.90;87.30
73777;DHT22;62088;50.240;2.696;2022-11-15T09:18:20;8.90;87.30
73777;DHT22;62088;50.240;2.696;2022-11-15T09:21:08;9.00;87.30
73777;DHT22;62088;50.240;2.696;2022-11-15T09:23:54;9.00;87.20
73777;DHT22;62088;50.240;2.696;2022-11-15T09:26:40;9.10;87.10
73777;DHT22;62088;50.240;2.696;2022-11-15T09:29:26;9.10;87.20
73777;DHT22;62088;50.240;2.696;2022-11-15T09:32:11;9.20;87.20
73777;DHT22;62088;50.240;2.696;2022-11-15T09:34:57;9.20;87.20
73777;DHT22;62088;50.240;2.696;2022-11-15T09:37:43;9.30;87.20
73777;DHT22;62088;50.240;2.696;2022-11-15T09:40:31;9.40;87.20
73777;DHT22;62088;50.240;2.696;2022-11-15T09:49:08;9.50;87.20
73777;DHT22;62088;50.240;2.696;2022-11-15T09:51:55;9.70;87.10
73777;DHT22;62088;50.240;2.696;2022-11-15T09:54:34;9.70;86.90
73777;DHT22;62088;50.240;2.696;2022-11-15T09:57:39;9.80;86.80
73777;DHT22;62088;50.240;2.696;2022-11-15T10:03:14;9.90;86.40
73777;DHT22;62088;50.240;2.696;2022-11-15T10:05:47;10.00;86.30
73777;DHT22;62088;50.240;2.696;2022-11-15T10:11:03;10.10;86.20
73777;DHT22;62088;50.240;2.696;2022-11-15T10:13:51;10.20;86.20
73777;DHT22;62088;50.240;2.696;2022-11-15T10:16:43;10.20;86.10
73777;DHT22;62088;50.240;2.696;2022-11-15T10:19:43;10.30;86.10
73777;DHT22;62088;50.240;2.696;2022-11-15T10:22:38;10.40;86.10
73777;DHT22;62088;50.240;2.696;2022-11-15T10:27:41;10.40;85.60
73777;DHT22;62088;50.240;2.696;2022-11-15T10:30:17;10.40;85.60
73777;DHT22;62088;50.240;2.696;2022-11-15T10:32:46;10.50;85.60
73777;DHT22;62088;50.240;2.696;2022-11-15T10:35:26;10.50;85.50
73777;DHT22;62088;50.240;2.696;2022-11-15T10:38:11;10.50;85.50
73777;DHT22;62088;50.240;2.696;2022-11-15T10:40:40;10.50;85.20
73777;DHT22;62088;50.240;2.696;2022-11-15T10:43:15;10.60;85.10
73777;DHT22;62088;50.240;2.696;2022-11-15T10:45:43;10.60;84.90
73777;DHT22;62088;50.240;2.696;2022-11-15T10:50:44;10.70;84.80
73777;DHT22;62088;50.240;2.696;2022-11-15T10:53:21;10.70;84.70
73777;DHT22;62088;50.240;2.696;2022-11-15T10:55:52;10.70;84.50
73777;DHT22;62088;50.240;2.696;2022-11-15T10:58:42;10.80;84.60
73777;DHT22;62088;50.240;2.696;2022-11-15T11:01:27;10.80;84.60
73777;DHT22;62088;50.240;2.696;2022-11-15T11:04:04;10.90;84.50
73777;DHT22;62088;50.240;2.696;2022-11-15T11:06:58;10.90;84.50
73777;DHT22;62088;50.240;2.696;2022-11-15T11:09:35;10.90;84.50
73777;DHT22;62088;50.240;2.696;2022-11-15T11:12:04;10.90;84.30
73777;DHT22;62088;50.240;2.696;2022-11-15T11:14:33;10.90;84.30
73777;DHT22;62088;50.240;2.696;2022-11-15T11:17:14;10.90;84.30
73777;DHT22;62088;50.240;2.696;2022-11-15T11:25:34;10.90;84.30
73777;DHT22;62088;50.240;2.696;2022-11-15T11:28:30;10.90;84.30
73777;DHT22;62088;50.240;2.696;2022-11-15T11:47:47;10.90;85.30
73777;DHT22;62088;50.240;2.696;2022-11-15T11:50:23;10.90;85.30
73777;DHT22;62088;50.240;2.696;2022-11-15T11:55:40;10.90;85.60
73777;DHT22;62088;50.240;2.696;2022-11-15T11:58:16;10.90;85.50
73777;DHT22;62088;50.240;2.696;2022-11-15T12:00:56;10.90;85.60
73777;DHT22;62088;50.240;2.696;2022-11-15T12:03:45;10.90;85.70
73777;DHT22;62088;50.240;2.696;2022-11-15T12:06:35;11.00;85.80
73777;DHT22;62088;50.240;2.696;2022-11-15T12:15:35;11.00;86.10
73777;DHT22;62088;50.240;2.696;2022-11-15T12:17:41;11.00;86.20
73777;DHT22;62088;50.240;2.696;2022-11-15T12:20:20;11.00;86.30
73777;DHT22;62088;50.240;2.696;2022-11-15T12:23:17;11.00;86.20
73777;DHT22;62088;50.240;2.696;2022-11-15T12:28:38;11.00;86.30
73777;DHT22;62088;50.240;2.696;2022-11-15T12:31:37;11.00;86.30
73777;DHT22;62088;50.240;2.696;2022-11-15T12:36:46;11.00;86.40
73777;DHT22;62088;50.240;2.696;2022-11-15T12:39:14;11.00;86.50
73777;DHT22;62088;50.240;2.696;2022-11-15T12:41:44;11.00;86.60
73777;DHT22;62088;50.240;2.696;2022-11-15T12:44:58;11.00;86.60
73777;DHT22;62088;50.240;2.696;2022-11-15T12:47:22;11.00;86.70
73777;DHT22;62088;50.240;2.696;2022-11-15T12:49:49;11.00;86.70
73777;DHT22;62088;50.240;2.696;2022-11-15T12:52:16;11.00;86.70
73777;DHT22;62088;50.240;2.696;2022-11-15T12:57:34;11.00;86.80
73777;DHT22;62088;50.240;2.696;2022-11-15T13:03:18;11.00;86.80
73777;DHT22;62088;50.240;2.696;2022-11-15T13:05:51;11.00;86.80
73777;DHT22;62088;50.240;2.696;2022-11-15T13:08:54;11.00;86.90
73777;DHT22;62088;50.240;2.696;2022-11-15T13:11:43;11.00;86.90
73777;DHT22;62088;50.240;2.696;2022-11-15T13:17:02;10.90;87.20
73777;DHT22;62088;50.240;2.696;2022-11-15T13:19:29;10.90;87.30
73777;DHT22;62088;50.240;2.696;2022-11-15T13:21:56;10.90;87.30
73777;DHT22;62088;50.240;2.696;2022-11-15T13:24:42;10.90;87.30
73777;DHT22;62088;50.240;2.696;2022-11-15T13:27:18;10.90;87.40
73777;DHT22;62088;50.240;2.696;2022-11-15T13:29:45;10.90;87.40
73777;DHT22;62088;50.240;2.696;2022-11-15T13:32:14;10.90;87.50
73777;DHT22;62088;50.240;2.696;2022-11-15T13:34:49;10.90;87.50
73777;DHT22;62088;50.240;2.696;2022-11-15T13:39:49;10.90;87.60
73777;DHT22;62088;50.240;2.696;2022-11-15T13:42:18;10.90;87.70
73777;DHT22;62088;50.240;2.696;2022-11-15T13:47:26;10.90;87.80
73777;DHT22;62088;50.240;2.696;2022-11-15T13:49:59;10.90;87.80
73777;DHT22;62088;50.240;2.696;2022-11-15T13:52:39;10.90;87.80
73777;DHT22;62088;50.240;2.696;2022-11-15T13:55:21;10.90;87.80
73777;DHT22;62088;50.240;2.696;2022-11-15T13:57:56;10.90;87.90
73777;DHT22;62088;50.240;2.696;2022-11-15T14:02:57;10.90;87.90
73777;DHT22;62088;50.240;2.696;2022-11-15T14:05:31;10.90;87.90
73777;DHT22;62088;50.240;2.696;2022-11-15T14:08:04;11.00;88.10
73777;DHT22;62088;50.240;2.696;2022-11-15T14:10:39;11.00;88.10
73777;DHT22;62088;50.240;2.696;2022-11-15T14:13:26;11.00;88.10
73777;DHT22;62088;50.240;2.696;2022-11-15T14:15:54;11.00;88.10
73777;DHT22;62088;50.240;2.696;2022-11-15T14:21:11;11.10;88.30
73777;DHT22;62088;50.240;2.696;2022-11-15T14:23:38;11.10;88.30
73777;DHT22;62088;50.240;2.696;2022-11-15T14:26:05;11.10;88.40
73777;DHT22;62088;50.240;2.696;2022-11-15T14:28:37;11.20;88.40
73777;DHT22;62088;50.240;2.696;2022-11-15T14:31:12;11.20;88.40
73777;DHT22;62088;50.240;2.696;2022-11-15T14:33:40;11.20;88.40
73777;DHT22;62088;50.240;2.696;2022-11-15T14:36:16;11.20;88.40
73777;DHT22;62088;50.240;2.696;2022-11-15T14:38:43;11.30;88.50
73777;DHT22;62088;50.240;2.696;2022-11-15T14:41:22;11.30;88.40
73777;DHT22;62088;50.240;2.696;2022-11-15T14:43:50;11.30;88.50
73777;DHT22;62088;50.240;2.696;2022-11-15T14:46:17;11.30;88.50
73777;DHT22;62088;50.240;2.696;2022-11-15T14:48:44;11.30;88.50
73777;DHT22;62088;50.240;2.696;2022-11-15T14:51:16;11.30;88.50
73777;DHT22;62088;50.240;2.696;2022-11-15T14:53:45;11.40;88.50
73777;DHT22;62088;50.240;2.696;2022-11-15T14:56:13;11.40;88.50
73777;DHT22;62088;50.240;2.696;2022-11-15T14:58:41;11.40;88.50
73777;DHT22;62088;50.240;2.696;2022-11-15T15:01:20;11.40;88.50
73777;DHT22;62088;50.240;2.696;2022-11-15T15:03:47;11.40;88.50
73777;DHT22;62088;50.240;2.696;2022-11-15T15:06:14;11.40;88.50
73777;DHT22;62088;50.240;2.696;2022-11-15T15:08:45;11.40;88.50
73777;DHT22;62088;50.240;2.696;2022-11-15T15:11:31;11.40;88.50
73777;DHT22;62088;50.240;2.696;2022-11-15T15:13:58;11.40;88.50
73777;DHT22;62088;50.240;2.696;2022-11-15T15:16:27;11.40;88.50
73777;DHT22;62088;50.240;2.696;2022-11-15T15:18:54;11.50;88.50
73777;DHT22;62088;50.240;2.696;2022-11-15T15:21:28;11.40;88.50
73777;DHT22;62088;50.240;2.696;2022-11-15T15:24:03;11.50;88.50
73777;DHT22;62088;50.240;2.696;2022-11-15T15:26:30;11.40;88.50
73777;DHT22;62088;50.240;2.696;2022-11-15T15:29:00;11.40;88.40
73777;DHT22;62088;50.240;2.696;2022-11-15T15:31:27;11.50;88.40
73777;DHT22;62088;50.240;2.696;2022-11-15T15:33:54;11.50;88.50
73777;DHT22;62088;50.240;2.696;2022-11-15T15:36:21;11.50;88.40
73777;DHT22;62088;50.240;2.696;2022-11-15T15:38:48;11.50;88.40
73777;DHT22;62088;50.240;2.696;2022-11-15T15:41:16;11.50;88.40
73777;DHT22;62088;50.240;2.696;2022-11-15T15:43:43;11.50;88.40
73777;DHT22;62088;50.240;2.696;2022-11-15T15:46:15;11.50;88.40
73777;DHT22;62088;50.240;2.696;2022-11-15T15:48:43;11.50;88.40
73777;DHT22;62088;50.240;2.696;2022-11-15T15:51:11;11.50;88.40
73777;DHT22;62088;50.240;2.696;2022-11-15T15:53:46;11.50;88.40
73777;DHT22;62088;50.240;2.696;2022-11-15T15:56:13;11.50;88.40
73777;DHT22;62088;50.240;2.696;2022-11-15T15:58:41;11.60;88.40
73777;DHT22;62088;50.240;2.696;2022-11-15T16:01:08;11.60;88.40
73777;DHT22;62088;50.240;2.696;2022-11-15T16:03:35;11.60;88.30
73777;DHT22;62088;50.240;2.696;2022-11-15T16:06:02;11.60;88.30
73777;DHT22;62088;50.240;2.696;2022-11-15T16:08:31;11.50;88.30
73777;DHT22;62088;50.240;2.696;2022-11-15T16:11:18;11.60;88.30
73777;DHT22;62088;50.240;2.696;2022-11-15T16:13:45;11.60;88.30
73777;DHT22;62088;50.240;2.696;2022-11-15T16:16:13;11.60;88.30
73777;DHT22;62088;50.240;2.696;2022-11-15T16:18:40;11.60;88.30
73777;DHT22;62088;50.240;2.696;2022-11-15T16:21:08;11.60;88.20
73777;DHT22;62088;50.240;2.696;2022-11-15T16:23:35;11.60;88.20
73777;DHT22;62088;50.240;2.696;2022-11-15T16:26:04;11.60;88.20
73777;DHT22;62088;50.240;2.696;2022-11-15T16:28:37;11.60;88.20
73777;DHT22;62088;50.240;2.696;2022-11-15T16:31:07;11.60;88.20
73777;DHT22;62088;50.240;2.696;2022-11-15T16:33:35;11.60;88.20
73777;DHT22;62088;50.240;2.696;2022-11-15T16:36:05;11.60;88.20
73777;DHT22;62088;50.240;2.696;2022-11-15T16:38:32;11.60;88.20
73777;DHT22;62088;50.240;2.696;2022-11-15T16:41:00;11.70;88.20
73777;DHT22;62088;50.240;2.696;2022-11-15T16:43:27;11.60;88.20
73777;DHT22;62088;50.240;2.696;2022-11-15T16:45:54;11.60;88.20
73777;DHT22;62088;50.240;2.696;2022-11-15T16:48:25;11.70;88.20
73777;DHT22;62088;50.240;2.696;2022-11-15T16:50:58;11.60;88.20
73777;DHT22;62088;50.240;2.696;2022-11-15T16:53:26;11.70;88.20
73777;DHT22;62088;50.240;2.696;2022-11-15T16:55:56;11.70;88.20
73777;DHT22;62088;50.240;2.696;2022-11-15T16:58:23;11.70;88.20
73777;DHT22;62088;50.240;2.696;2022-11-15T17:00:54;11.70;88.20
73777;DHT22;62088;50.240;2.696;2022-11-15T17:03:23;11.70;88.20
73777;DHT22;62088;50.240;2.696;2022-11-15T17:05:50;11.70;88.20
73777;DHT22;62088;50.240;2.696;2022-11-15T17:08:18;11.70;88.10
73777;DHT22;62088;50.240;2.696;2022-11-15T17:10:47;11.70;88.10
73777;DHT22;62088;50.240;2.696;2022-11-15T17:13:15;11.70;88.10
73777;DHT22;62088;50.240;2.696;2022-11-15T17:15:42;11.70;88.10
73777;DHT22;62088;50.240;2.696;2022-11-15T17:18:12;11.70;88.10
73777;DHT22;62088;50.240;2.696;2022-11-15T17:20:41;11.70;88.10
73777;DHT22;62088;50.240;2.696;2022-11-15T17:23:12;11.80;88.10
73777;DHT22;62088;50.240;2.696;2022-11-15T17:25:40;11.70;88.10
73777;DHT22;62088;50.240;2.696;2022-11-15T17:28:08;11.70;88.20
73777;DHT22;62088;50.240;2.696;2022-11-15T17:30:35;11.70;88.20
73777;DHT22;62088;50.240;2.696;2022-11-15T17:33:02;11.70;88.20
73777;DHT22;62088;50.240;2.696;2022-11-15T17:35:30;11.80;88.20
73777;DHT22;62088;50.240;2.696;2022-11-15T17:37:59;11.80;88.20
73777;DHT22;62088;50.240;2.696;2022-11-15T17:40:26;11.80;88.20
73777;DHT22;62088;50.240;2.696;2022-11-15T17:42:53;11.80;88.20
73777;DHT22;62088;50.240;2.696;2022-11-15T17:45:21;11.80;88.20
73777;DHT22;62088;50.240;2.696;2022-11-15T17:47:48;11.80;88.20
73777;DHT22;62088;50.240;2.696;2022-11-15T17:50:15;11.80;88.20
73777;DHT22;62088;50.240;2.696;2022-11-15T17:52:43;11.90;88.20
73777;DHT22;62088;50.240;2.696;2022-11-15T17:55:10;11.90;88.20
73777;DHT22;62088;50.240;2.696;2022-11-15T17:57:37;11.90;88.20
73777;DHT22;62088;50.240;2.696;2022-11-15T18:00:04;11.90;88.20
73777;DHT22;62088;50.240;2.696;2022-11-15T18:02:32;11.90;88.10
73777;DHT22;62088;50.240;2.696;2022-11-15T18:04:59;11.90;88.10
73777;DHT22;62088;50.240;2.696;2022-11-15T18:07:26;11.90;88.10
73777;DHT22;62088;50.240;2.696;2022-11-15T18:09:53;11.90;88.10
73777;DHT22;62088;50.240;2.696;2022-11-15T18:12:21;11.90;88.10
73777;DHT22;62088;50.240;2.696;2022-11-15T18:14:48;11.90;88.10
73777;DHT22;62088;50.240;2.696;2022-11-15T18:17:15;11.90;88.10
73777;DHT22;62088;50.240;2.696;2022-11-15T18:19:44;11.90;88.10
73777;DHT22;62088;50.240;2.696;2022-11-15T18:22:11;11.90;88.20
73777;DHT22;62088;50.240;2.696;2022-11-15T18:24:39;11.90;88.20
73777;DHT22;62088;50.240;2.696;2022-11-15T18:27:09;11.90;88.20
73777;DHT22;62088;50.240;2.696;2022-11-15T18:29:36;11.90;88.20
73777;DHT22;62088;50.240;2.696;2022-11-15T18:32:04;11.90;88.20
73777;DHT22;62088;50.240;2.696;2022-11-15T18:34:37;11.90;88.20
73777;DHT22;62088;50.240;2.696;2022-11-15T18:37:04;12.00;88.20
73777;DHT22;62088;50.240;2.696;2022-11-15T18:39:31;12.00;88.20
73777;DHT22;62088;50.240;2.696;2022-11-15T18:41:59;12.00;88.20
73777;DHT22;62088;50.240;2.696;2022-11-15T18:44:28;12.00;88.20
73777;DHT22;62088;50.240;2.696;2022-11-15T18:46:55;12.00;88.20
73777;DHT22;62088;50.240;2.696;2022-11-15T18:49:23;12.10;88.30
73777;DHT22;62088;50.240;2.696;2022-11-15T18:51:50;12.10;88.20